sensor_id;sensor_type;location;lat;lon;timestamp;P1;durP1;ratioP1;P2;durP2;ratioP2
44774;SDS011;31340;51.402;0.016;2023-02-12T00:01:24;27.55;;;17.92;;
44774;SDS011;31340;51.402;0.016;2023-02-12T00:03:53;26.15;;;17.45;;
44774;SDS011;31340;51.402;0.016;2023-02-12T00:06:21;34.10;;;19.92;;
44774;SDS011;31340;51.402;0.016;2023-02-12T00:08:49;33.33;;;20.02;;
44774;SDS011;31340;51.402;0.016;2023-02-12T00:11:25;31.25;;;19.27;;
44774;SDS011;31340;51.402;0.016;2023-02-12T00:13:55;30.55;;;18.20;;
44774;SDS011;31340;51.402;0.016;2023-02-12T00:16:25;33.50;;;21.15;;
44774;SDS011;31340;51.402;0.016;2023-02-12T00:18:55;32.47;;;20.77;;
44774;SDS011;31340;51.402;0.016;2023-02-12T00:21:24;29.02;;;19.88;;
44774;SDS011;31340;51.402;0.016;2023-02-12T00:23:54;33.83;;;21.30;;
44774;SDS011;31340;51.402;0.016;2023-02-12T00:26:22;34.25;;;21.17;;
44774;SDS011;31340;51.402;0.016;2023-02-12T00:28:50;33.60;;;21.48;;
44774;SDS011;31340;51.402;0.016;2023-02-12T00:31:21;30.60;;;20.65;;
44774;SDS011;31340;51.402;0.016;2023-02-12T00:33:51;26.58;;;18.38;;
44774;SDS011;31340;51.402;0.016;2023-02-12T00:36:21;27.95;;;18.40;;
44774;SDS011;31340;51.402;0.016;2023-02-12T00:38:50;26.13;;;16.10;;
44774;SDS011;31340;51.402;0.016;2023-02-12T00:41:20;27.02;;;16.63;;
44774;SDS011;31340;51.402;0.016;2023-02-12T00:43:48;26.67;;;15.57;;
44774;SDS011;31340;51.402;0.016;2023-02-12T00:46:16;29.80;;;16.73;;
44774;SDS011;31340;51.402;0.016;2023-02-12T00:48:45;25.38;;;17.58;;
44774;SDS011;31340;51.402;0.016;2023-02-12T00:51:12;25.58;;;16.92;;
44774;SDS011;31340;51.402;0.016;2023-02-12T00:53:43;26.17;;;16.08;;
44774;SDS011;31340;51.402;0.016;2023-02-12T00:56:13;28.60;;;17.15;;
44774;SDS011;31340;51.402;0.016;2023-02-12T00:58:42;23.33;;;15.35;;
44774;SDS011;31340;51.402;0.016;2023-02-12T01:01:12;22.75;;;15.52;;
44774;SDS011;31340;51.402;0.016;2023-02-12T01:03:39;22.52;;;15.75;;
44774;SDS011;31340;51.402;0.016;2023-02-12T01:06:09;25.27;;;15.43;;
44774;SDS011;31340;51.402;0.016;2023-02-12T01:08:37;21.83;;;13.65;;
44774;SDS011;31340;51.402;0.016;2023-02-12T01:11:05;23.27;;;14.25;;
44774;SDS011;31340;51.402;0.016;2023-02-12T01:13:33;22.80;;;14.27;;
44774;SDS011;31340;51.402;0.016;2023-02-12T01:16:14;19.27;;;13.43;;
44774;SDS011;31340;51.402;0.016;2023-02-12T01:18:44;21.25;;;13.68;;
44774;SDS011;31340;51.402;0.016;2023-02-12T01:21:15;22.67;;;14.32;;
44774;SDS011;31340;51.402;0.016;2023-02-12T01:23:45;26.52;;;15.80;;
44774;SDS011;31340;51.402;0.016;2023-02-12T01:26:14;25.60;;;14.75;;
44774;SDS011;31340;51.402;0.016;2023-02-12T01:28:43;29.17;;;16.35;;
44774;SDS011;31340;51.402;0.016;2023-02-12T01:33:42;23.75;;;14.95;;
44774;SDS011;31340;51.402;0.016;2023-02-12T01:36:13;22.60;;;15.18;;
44774;SDS011;31340;51.402;0.016;2023-02-12T01:38:41;24.63;;;13.85;;
44774;SDS011;31340;51.402;0.016;2023-02-12T01:41:16;20.88;;;13.18;;
44774;SDS011;31340;51.402;0.016;2023-02-12T01:46:35;20.30;;;13.23;;
44774;SDS011;31340;51.402;0.016;2023-02-12T01:49:04;19.70;;;13.10;;
44774;SDS011;31340;51.402;0.016;2023-02-12T01:51:35;21.48;;;13.20;;
44774;SDS011;31340;51.402;0.016;2023-02-12T01:54:04;21.10;;;12.75;;
44774;SDS011;31340;51.402;0.016;2023-02-12T01:59:01;20.33;;;13.80;;
44774;SDS011;31340;51.402;0.016;2023-02-12T02:01:30;21.65;;;14.30;;
44774;SDS011;31340;51.402;0.016;2023-02-12T02:04:00;22.13;;;12.82;;
44774;SDS011;31340;51.402;0.016;2023-02-12T02:06:35;23.15;;;14.43;;
44774;SDS011;31340;51.402;0.016;2023-02-12T02:09:08;20.50;;;13.75;;
44774;SDS011;31340;51.402;0.016;2023-02-12T02:11:36;21.80;;;13.80;;
44774;SDS011;31340;51.402;0.016;2023-02-12T02:14:23;24.02;;;14.27;;
44774;SDS011;31340;51.402;0.016;2023-02-12T02:31:16;26.20;;;14.40;;
44774;SDS011;31340;51.402;0.016;2023-02-12T02:34:07;22.08;;;14.25;;
44774;SDS011;31340;51.402;0.016;2023-02-12T02:37:07;19.58;;;13.25;;
44774;SDS011;31340;51.402;0.016;2023-02-12T02:39:52;22.40;;;13.43;;
44774;SDS011;31340;51.402;0.016;2023-02-12T02:45:19;27.02;;;13.77;;
44774;SDS011;31340;51.402;0.016;2023-02-12T02:50:50;20.20;;;12.23;;
44774;SDS011;31340;51.402;0.016;2023-02-12T02:53:25;23.50;;;13.93;;
44774;SDS011;31340;51.402;0.016;2023-02-12T02:55:57;18.67;;;13.35;;
44774;SDS011;31340;51.402;0.016;2023-02-12T02:58:30;21.55;;;13.32;;
44774;SDS011;31340;51.402;0.016;2023-02-12T03:01:13;22.30;;;14.02;;
44774;SDS011;31340;51.402;0.016;2023-02-12T03:06:28;22.80;;;13.15;;
44774;SDS011;31340;51.402;0.016;2023-02-12T03:09:01;21.38;;;13.75;;
44774;SDS011;31340;51.402;0.016;2023-02-12T03:11:35;24.10;;;15.73;;
44774;SDS011;31340;51.402;0.016;2023-02-12T03:14:05;24.67;;;15.50;;
44774;SDS011;31340;51.402;0.016;2023-02-12T03:17:21;26.77;;;16.17;;
44774;SDS011;31340;51.402;0.016;2023-02-12T03:19:31;26.02;;;15.18;;
44774;SDS011;31340;51.402;0.016;2023-02-12T03:22:13;27.27;;;16.15;;
44774;SDS011;31340;51.402;0.016;2023-02-12T03:24:49;26.20;;;15.20;;
44774;SDS011;31340;51.402;0.016;2023-02-12T03:27:25;24.92;;;15.15;;
44774;SDS011;31340;51.402;0.016;2023-02-12T03:29:58;24.70;;;14.95;;
44774;SDS011;31340;51.402;0.016;2023-02-12T03:35:04;25.00;;;15.50;;
44774;SDS011;31340;51.402;0.016;2023-02-12T03:37:53;23.50;;;14.40;;
44774;SDS011;31340;51.402;0.016;2023-02-12T03:40:45;23.50;;;14.45;;
44774;SDS011;31340;51.402;0.016;2023-02-12T03:48:21;23.55;;;12.95;;
44774;SDS011;31340;51.402;0.016;2023-02-12T03:53:43;24.48;;;13.50;;
44774;SDS011;31340;51.402;0.016;2023-02-12T03:56:16;24.45;;;12.52;;
44774;SDS011;31340;51.402;0.016;2023-02-12T03:58:46;28.05;;;16.08;;
44774;SDS011;31340;51.402;0.016;2023-02-12T04:01:14;23.50;;;13.52;;
44774;SDS011;31340;51.402;0.016;2023-02-12T04:03:42;20.63;;;12.82;;
44774;SDS011;31340;51.402;0.016;2023-02-12T04:06:20;24.10;;;14.18;;
44774;SDS011;31340;51.402;0.016;2023-02-12T04:08:52;22.20;;;12.40;;
44774;SDS011;31340;51.402;0.016;2023-02-12T04:11:30;22.42;;;13.48;;
44774;SDS011;31340;51.402;0.016;2023-02-12T04:16:59;29.38;;;13.05;;
44774;SDS011;31340;51.402;0.016;2023-02-12T04:19:39;20.55;;;12.73;;
44774;SDS011;31340;51.402;0.016;2023-02-12T04:27:38;22.08;;;12.85;;
44774;SDS011;31340;51.402;0.016;2023-02-12T04:30:23;24.70;;;12.73;;
44774;SDS011;31340;51.402;0.016;2023-02-12T04:32:58;27.75;;;13.50;;
44774;SDS011;31340;51.402;0.016;2023-02-12T04:35:43;20.38;;;11.85;;
44774;SDS011;31340;51.402;0.016;2023-02-12T04:38:18;23.70;;;12.63;;
44774;SDS011;31340;51.402;0.016;2023-02-12T04:40:52;19.70;;;11.20;;
44774;SDS011;31340;51.402;0.016;2023-02-12T04:43:27;20.20;;;11.57;;
44774;SDS011;31340;51.402;0.016;2023-02-12T04:45:54;21.25;;;12.63;;
44774;SDS011;31340;51.402;0.016;2023-02-12T04:48:22;23.38;;;11.35;;
44774;SDS011;31340;51.402;0.016;2023-02-12T04:50:50;20.77;;;11.10;;
44774;SDS011;31340;51.402;0.016;2023-02-12T04:53:18;20.98;;;11.90;;
44774;SDS011;31340;51.402;0.016;2023-02-12T04:55:45;19.73;;;12.05;;
44774;SDS011;31340;51.402;0.016;2023-02-12T04:58:14;20.63;;;11.75;;
44774;SDS011;31340;51.402;0.016;2023-02-12T05:00:42;20.05;;;12.13;;
44774;SDS011;31340;51.402;0.016;2023-02-12T05:03:09;19.70;;;11.35;;
44774;SDS011;31340;51.402;0.016;2023-02-12T05:05:37;20.83;;;11.05;;
44774;SDS011;31340;51.402;0.016;2023-02-12T05:08:04;19.88;;;12.00;;
44774;SDS011;31340;51.402;0.016;2023-02-12T05:10:32;18.80;;;11.85;;
44774;SDS011;31340;51.402;0.016;2023-02-12T05:12:59;19.92;;;10.52;;
44774;SDS011;31340;51.402;0.016;2023-02-12T05:15:27;20.05;;;12.10;;
44774;SDS011;31340;51.402;0.016;2023-02-12T05:17:54;15.65;;;11.02;;
44774;SDS011;31340;51.402;0.016;2023-02-12T05:20:22;17.08;;;11.27;;
44774;SDS011;31340;51.402;0.016;2023-02-12T05:22:50;17.02;;;11.23;;
44774;SDS011;31340;51.402;0.016;2023-02-12T05:25:19;19.67;;;11.55;;
44774;SDS011;31340;51.402;0.016;2023-02-12T05:27:46;18.60;;;11.75;;
44774;SDS011;31340;51.402;0.016;2023-02-12T05:30:14;20.05;;;11.88;;
44774;SDS011;31340;51.402;0.016;2023-02-12T05:32:42;19.73;;;11.48;;
44774;SDS011;31340;51.402;0.016;2023-02-12T05:35:09;17.85;;;11.48;;
44774;SDS011;31340;51.402;0.016;2023-02-12T05:37:37;22.13;;;12.43;;
44774;SDS011;31340;51.402;0.016;2023-02-12T05:40:04;19.98;;;11.70;;
44774;SDS011;31340;51.402;0.016;2023-02-12T05:42:32;23.48;;;12.43;;
44774;SDS011;31340;51.402;0.016;2023-02-12T05:45:00;21.75;;;11.75;;
44774;SDS011;31340;51.402;0.016;2023-02-12T05:47:27;20.13;;;12.48;;
44774;SDS011;31340;51.402;0.016;2023-02-12T05:49:55;19.77;;;13.02;;
44774;SDS011;31340;51.402;0.016;2023-02-12T05:52:22;28.55;;;14.05;;
44774;SDS011;31340;51.402;0.016;2023-02-12T05:54:50;21.02;;;13.43;;
44774;SDS011;31340;51.402;0.016;2023-02-12T05:57:17;21.50;;;11.85;;
44774;SDS011;31340;51.402;0.016;2023-02-12T05:59:45;21.33;;;12.23;;
44774;SDS011;31340;51.402;0.016;2023-02-12T06:02:12;19.85;;;12.43;;
44774;SDS011;31340;51.402;0.016;2023-02-12T06:04:40;18.50;;;11.73;;
44774;SDS011;31340;51.402;0.016;2023-02-12T06:07:07;22.33;;;12.65;;
44774;SDS011;31340;51.402;0.016;2023-02-12T06:09:35;24.63;;;12.73;;
44774;SDS011;31340;51.402;0.016;2023-02-12T06:12:03;25.00;;;13.45;;
44774;SDS011;31340;51.402;0.016;2023-02-12T06:14:30;29.63;;;13.40;;
44774;SDS011;31340;51.402;0.016;2023-02-12T06:16:58;18.20;;;9.85;;
44774;SDS011;31340;51.402;0.016;2023-02-12T06:19:26;22.10;;;11.88;;
44774;SDS011;31340;51.402;0.016;2023-02-12T06:21:54;20.75;;;12.15;;
44774;SDS011;31340;51.402;0.016;2023-02-12T06:24:21;18.25;;;11.98;;
44774;SDS011;31340;51.402;0.016;2023-02-12T06:26:50;19.65;;;11.75;;
44774;SDS011;31340;51.402;0.016;2023-02-12T06:29:18;20.80;;;11.63;;
44774;SDS011;31340;51.402;0.016;2023-02-12T06:31:46;20.83;;;11.32;;
44774;SDS011;31340;51.402;0.016;2023-02-12T06:34:15;21.67;;;11.48;;
44774;SDS011;31340;51.402;0.016;2023-02-12T06:36:45;17.60;;;10.00;;
44774;SDS011;31340;51.402;0.016;2023-02-12T06:39:14;19.60;;;9.43;;
44774;SDS011;31340;51.402;0.016;2023-02-12T06:41:42;16.63;;;10.05;;
44774;SDS011;31340;51.402;0.016;2023-02-12T06:44:11;20.02;;;11.55;;
44774;SDS011;31340;51.402;0.016;2023-02-12T06:46:39;19.38;;;11.35;;
44774;SDS011;31340;51.402;0.016;2023-02-12T06:49:09;17.73;;;10.48;;
44774;SDS011;31340;51.402;0.016;2023-02-12T06:51:39;21.38;;;12.32;;
44774;SDS011;31340;51.402;0.016;2023-02-12T06:54:11;20.30;;;11.93;;
44774;SDS011;31340;51.402;0.016;2023-02-12T06:56:40;20.13;;;11.65;;
44774;SDS011;31340;51.402;0.016;2023-02-12T06:59:09;18.85;;;11.00;;
44774;SDS011;31340;51.402;0.016;2023-02-12T07:01:41;19.33;;;10.25;;
44774;SDS011;31340;51.402;0.016;2023-02-12T07:04:10;20.15;;;10.25;;
44774;SDS011;31340;51.402;0.016;2023-02-12T07:06:37;17.83;;;9.90;;
44774;SDS011;31340;51.402;0.016;2023-02-12T07:09:05;22.45;;;10.40;;
44774;SDS011;31340;51.402;0.016;2023-02-12T07:11:34;15.20;;;8.15;;
44774;SDS011;31340;51.402;0.016;2023-02-12T07:14:05;16.42;;;8.52;;
44774;SDS011;31340;51.402;0.016;2023-02-12T07:16:33;17.67;;;8.55;;
44774;SDS011;31340;51.402;0.016;2023-02-12T07:19:01;19.80;;;9.32;;
44774;SDS011;31340;51.402;0.016;2023-02-12T07:21:28;18.20;;;9.85;;
44774;SDS011;31340;51.402;0.016;2023-02-12T07:23:56;19.00;;;10.10;;
44774;SDS011;31340;51.402;0.016;2023-02-12T07:26:24;20.65;;;9.88;;
44774;SDS011;31340;51.402;0.016;2023-02-12T07:28:51;21.63;;;10.50;;
44774;SDS011;31340;51.402;0.016;2023-02-12T07:31:22;21.38;;;10.70;;
44774;SDS011;31340;51.402;0.016;2023-02-12T07:33:52;20.10;;;10.07;;
44774;SDS011;31340;51.402;0.016;2023-02-12T07:36:22;24.05;;;10.88;;
44774;SDS011;31340;51.402;0.016;2023-02-12T07:38:50;23.98;;;11.50;;
44774;SDS011;31340;51.402;0.016;2023-02-12T07:41:23;28.65;;;11.90;;
44774;SDS011;31340;51.402;0.016;2023-02-12T07:43:59;23.00;;;10.95;;
44774;SDS011;31340;51.402;0.016;2023-02-12T07:46:34;20.73;;;11.93;;
44774;SDS011;31340;51.402;0.016;2023-02-12T07:49:04;24.45;;;9.00;;
44774;SDS011;31340;51.402;0.016;2023-02-12T07:51:33;18.90;;;10.32;;
44774;SDS011;31340;51.402;0.016;2023-02-12T07:54:01;20.48;;;10.50;;
44774;SDS011;31340;51.402;0.016;2023-02-12T07:56:31;20.83;;;10.75;;
44774;SDS011;31340;51.402;0.016;2023-02-12T07:59:03;22.10;;;11.10;;
44774;SDS011;31340;51.402;0.016;2023-02-12T08:01:37;23.52;;;12.23;;
44774;SDS011;31340;51.402;0.016;2023-02-12T08:04:08;17.60;;;10.05;;
44774;SDS011;31340;51.402;0.016;2023-02-12T08:06:43;19.73;;;10.63;;
44774;SDS011;31340;51.402;0.016;2023-02-12T08:09:13;21.30;;;10.20;;
44774;SDS011;31340;51.402;0.016;2023-02-12T08:11:43;21.17;;;10.80;;
44774;SDS011;31340;51.402;0.016;2023-02-12T08:14:12;17.40;;;10.65;;
44774;SDS011;31340;51.402;0.016;2023-02-12T08:16:42;23.83;;;10.95;;
44774;SDS011;31340;51.402;0.016;2023-02-12T08:19:10;17.50;;;9.48;;
44774;SDS011;31340;51.402;0.016;2023-02-12T08:21:49;15.63;;;9.55;;
44774;SDS011;31340;51.402;0.016;2023-02-12T08:24:18;17.25;;;9.18;;
44774;SDS011;31340;51.402;0.016;2023-02-12T08:26:47;17.90;;;9.13;;
44774;SDS011;31340;51.402;0.016;2023-02-12T08:29:17;20.67;;;9.00;;
44774;SDS011;31340;51.402;0.016;2023-02-12T08:31:47;16.02;;;9.18;;
44774;SDS011;31340;51.402;0.016;2023-02-12T08:34:20;13.90;;;8.90;;
44774;SDS011;31340;51.402;0.016;2023-02-12T08:36:59;16.38;;;8.27;;
44774;SDS011;31340;51.402;0.016;2023-02-12T08:39:28;17.00;;;9.48;;
44774;SDS011;31340;51.402;0.016;2023-02-12T08:41:56;15.80;;;6.95;;
44774;SDS011;31340;51.402;0.016;2023-02-12T08:44:25;18.98;;;10.75;;
44774;SDS011;31340;51.402;0.016;2023-02-12T08:46:53;17.58;;;9.85;;
44774;SDS011;31340;51.402;0.016;2023-02-12T08:49:22;19.00;;;11.15;;
44774;SDS011;31340;51.402;0.016;2023-02-12T08:51:53;15.43;;;9.73;;
44774;SDS011;31340;51.402;0.016;2023-02-12T08:54:23;21.30;;;11.63;;
44774;SDS011;31340;51.402;0.016;2023-02-12T08:56:53;20.75;;;10.00;;
44774;SDS011;31340;51.402;0.016;2023-02-12T08:59:23;17.15;;;9.70;;
44774;SDS011;31340;51.402;0.016;2023-02-12T09:01:51;19.52;;;10.23;;
44774;SDS011;31340;51.402;0.016;2023-02-12T09:04:24;17.77;;;9.27;;
44774;SDS011;31340;51.402;0.016;2023-02-12T09:06:52;16.80;;;9.50;;
44774;SDS011;31340;51.402;0.016;2023-02-12T09:09:20;14.25;;;8.27;;
44774;SDS011;31340;51.402;0.016;2023-02-12T09:11:48;15.00;;;8.30;;
44774;SDS011;31340;51.402;0.016;2023-02-12T09:14:17;13.02;;;8.00;;
44774;SDS011;31340;51.402;0.016;2023-02-12T09:16:52;14.25;;;7.15;;
44774;SDS011;31340;51.402;0.016;2023-02-12T09:19:20;16.70;;;8.35;;
44774;SDS011;31340;51.402;0.016;2023-02-12T09:21:49;13.30;;;8.23;;
44774;SDS011;31340;51.402;0.016;2023-02-12T09:24:22;18.92;;;9.40;;
44774;SDS011;31340;51.402;0.016;2023-02-12T09:26:51;17.98;;;9.27;;
44774;SDS011;31340;51.402;0.016;2023-02-12T09:29:19;20.45;;;8.98;;
44774;SDS011;31340;51.402;0.016;2023-02-12T09:31:46;15.07;;;8.05;;
44774;SDS011;31340;51.402;0.016;2023-02-12T09:34:15;16.88;;;7.60;;
44774;SDS011;31340;51.402;0.016;2023-02-12T09:36:42;15.07;;;7.47;;
44774;SDS011;31340;51.402;0.016;2023-02-12T09:39:10;9.95;;;6.25;;
44774;SDS011;31340;51.402;0.016;2023-02-12T09:41:45;10.68;;;6.00;;
44774;SDS011;31340;51.402;0.016;2023-02-12T09:47:43;8.07;;;4.72;;
44774;SDS011;31340;51.402;0.016;2023-02-12T09:50:39;12.00;;;5.43;;
44774;SDS011;31340;51.402;0.016;2023-02-12T09:53:12;9.23;;;5.40;;
44774;SDS011;31340;51.402;0.016;2023-02-12T09:55:43;9.80;;;5.95;;
44774;SDS011;31340;51.402;0.016;2023-02-12T10:01:21;11.57;;;5.82;;
44774;SDS011;31340;51.402;0.016;2023-02-12T10:03:50;9.60;;;5.15;;
44774;SDS011;31340;51.402;0.016;2023-02-12T10:06:19;7.75;;;4.55;;
44774;SDS011;31340;51.402;0.016;2023-02-12T10:12:14;6.47;;;4.05;;
44774;SDS011;31340;51.402;0.016;2023-02-12T10:14:56;8.27;;;3.58;;
44774;SDS011;31340;51.402;0.016;2023-02-12T10:28:26;4.45;;;2.65;;
44774;SDS011;31340;51.402;0.016;2023-02-12T10:30:59;5.28;;;2.58;;
44774;SDS011;31340;51.402;0.016;2023-02-12T10:33:35;7.43;;;3.15;;
44774;SDS011;31340;51.402;0.016;2023-02-12T10:39:12;7.30;;;3.47;;
44774;SDS011;31340;51.402;0.016;2023-02-12T10:42:02;6.60;;;3.25;;
44774;SDS011;31340;51.402;0.016;2023-02-12T10:45:02;5.28;;;3.28;;
44774;SDS011;31340;51.402;0.016;2023-02-12T10:47:30;4.85;;;2.65;;
44774;SDS011;31340;51.402;0.016;2023-02-12T10:49:58;5.65;;;2.95;;
44774;SDS011;31340;51.402;0.016;2023-02-12T10:55:29;5.35;;;3.40;;
44774;SDS011;31340;51.402;0.016;2023-02-12T10:57:58;5.45;;;3.13;;
44774;SDS011;31340;51.402;0.016;2023-02-12T11:00:30;5.37;;;3.20;;
44774;SDS011;31340;51.402;0.016;2023-02-12T11:03:01;7.05;;;3.50;;
44774;SDS011;31340;51.402;0.016;2023-02-12T11:05:41;6.55;;;4.13;;
44774;SDS011;31340;51.402;0.016;2023-02-12T11:11:02;7.82;;;4.40;;
44774;SDS011;31340;51.402;0.016;2023-02-12T11:13:34;8.57;;;6.22;;
44774;SDS011;31340;51.402;0.016;2023-02-12T11:16:03;5.70;;;3.30;;
44774;SDS011;31340;51.402;0.016;2023-02-12T11:18:32;13.48;;;6.68;;
44774;SDS011;31340;51.402;0.016;2023-02-12T11:21:09;8.48;;;4.82;;
44774;SDS011;31340;51.402;0.016;2023-02-12T11:23:40;9.77;;;6.53;;
44774;SDS011;31340;51.402;0.016;2023-02-12T11:28:53;8.25;;;3.92;;
44774;SDS011;31340;51.402;0.016;2023-02-12T11:31:26;7.13;;;3.10;;
44774;SDS011;31340;51.402;0.016;2023-02-12T11:36:45;9.40;;;3.72;;
44774;SDS011;31340;51.402;0.016;2023-02-12T11:39:26;8.10;;;4.10;;
44774;SDS011;31340;51.402;0.016;2023-02-12T11:41:58;5.75;;;3.10;;
44774;SDS011;31340;51.402;0.016;2023-02-12T11:45:02;7.65;;;3.95;;
44774;SDS011;31340;51.402;0.016;2023-02-12T11:47:31;6.93;;;3.28;;
44774;SDS011;31340;51.402;0.016;2023-02-12T11:50:08;6.82;;;3.55;;
44774;SDS011;31340;51.402;0.016;2023-02-12T11:52:55;6.88;;;3.38;;
44774;SDS011;31340;51.402;0.016;2023-02-12T11:55:27;5.57;;;3.17;;
44774;SDS011;31340;51.402;0.016;2023-02-12T11:58:04;5.78;;;3.47;;
44774;SDS011;31340;51.402;0.016;2023-02-12T12:03:34;5.07;;;3.13;;
44774;SDS011;31340;51.402;0.016;2023-02-12T12:06:15;9.20;;;4.15;;
44774;SDS011;31340;51.402;0.016;2023-02-12T12:09:02;6.05;;;3.83;;
44774;SDS011;31340;51.402;0.016;2023-02-12T12:14:26;7.78;;;3.15;;
44774;SDS011;31340;51.402;0.016;2023-02-12T12:17:05;6.55;;;3.38;;
44774;SDS011;31340;51.402;0.016;2023-02-12T12:19:58;7.72;;;3.50;;
44774;SDS011;31340;51.402;0.016;2023-02-12T12:25:30;7.68;;;4.18;;
44774;SDS011;31340;51.402;0.016;2023-02-12T12:31:02;6.22;;;3.75;;
44774;SDS011;31340;51.402;0.016;2023-02-12T12:41:26;8.52;;;4.65;;
44774;SDS011;31340;51.402;0.016;2023-02-12T12:44:08;17.60;;;9.82;;
44774;SDS011;31340;51.402;0.016;2023-02-12T12:52:39;15.30;;;8.38;;
44774;SDS011;31340;51.402;0.016;2023-02-12T12:58:37;8.85;;;5.30;;
44774;SDS011;31340;51.402;0.016;2023-02-12T13:01:19;8.25;;;4.60;;
44774;SDS011;31340;51.402;0.016;2023-02-12T13:15:05;9.93;;;4.72;;
44774;SDS011;31340;51.402;0.016;2023-02-12T13:20:55;10.80;;;4.90;;
44774;SDS011;31340;51.402;0.016;2023-02-12T13:23:41;9.57;;;5.20;;
44774;SDS011;31340;51.402;0.016;2023-02-12T13:26:24;10.40;;;5.63;;
44774;SDS011;31340;51.402;0.016;2023-02-12T13:28:59;10.05;;;5.50;;
44774;SDS011;31340;51.402;0.016;2023-02-12T13:31:42;12.27;;;7.32;;
44774;SDS011;31340;51.402;0.016;2023-02-12T13:34:15;11.25;;;5.90;;
44774;SDS011;31340;51.402;0.016;2023-02-12T13:36:44;10.43;;;5.63;;
44774;SDS011;31340;51.402;0.016;2023-02-12T13:39:21;10.60;;;6.03;;
44774;SDS011;31340;51.402;0.016;2023-02-12T13:44:51;8.45;;;4.55;;
44774;SDS011;31340;51.402;0.016;2023-02-12T13:52:52;7.38;;;5.07;;
44774;SDS011;31340;51.402;0.016;2023-02-12T13:55:30;11.80;;;7.10;;
44774;SDS011;31340;51.402;0.016;2023-02-12T14:03:38;11.23;;;6.13;;
44774;SDS011;31340;51.402;0.016;2023-02-12T14:06:16;10.38;;;5.20;;
44774;SDS011;31340;51.402;0.016;2023-02-12T14:08:47;9.98;;;6.28;;
44774;SDS011;31340;51.402;0.016;2023-02-12T14:11:19;15.82;;;6.88;;
44774;SDS011;31340;51.402;0.016;2023-02-12T14:13:54;12.50;;;5.88;;
44774;SDS011;31340;51.402;0.016;2023-02-12T14:22:56;11.95;;;5.45;;
44774;SDS011;31340;51.402;0.016;2023-02-12T14:24:53;10.02;;;4.97;;
44774;SDS011;31340;51.402;0.016;2023-02-12T14:27:26;9.60;;;5.63;;
44774;SDS011;31340;51.402;0.016;2023-02-12T14:30:11;7.80;;;4.57;;
44774;SDS011;31340;51.402;0.016;2023-02-12T14:37:56;7.15;;;3.90;;
44774;SDS011;31340;51.402;0.016;2023-02-12T14:40:50;6.18;;;3.90;;
44774;SDS011;31340;51.402;0.016;2023-02-12T14:48:52;5.93;;;3.08;;
44774;SDS011;31340;51.402;0.016;2023-02-12T14:53:55;8.82;;;4.47;;
44774;SDS011;31340;51.402;0.016;2023-02-12T14:56:24;6.95;;;4.20;;
44774;SDS011;31340;51.402;0.016;2023-02-12T14:58:53;11.20;;;4.38;;
44774;SDS011;31340;51.402;0.016;2023-02-12T15:01:31;7.30;;;4.50;;
44774;SDS011;31340;51.402;0.016;2023-02-12T15:04:04;8.20;;;4.10;;
44774;SDS011;31340;51.402;0.016;2023-02-12T15:06:47;8.50;;;5.22;;
44774;SDS011;31340;51.402;0.016;2023-02-12T15:09:23;12.25;;;4.82;;
44774;SDS011;31340;51.402;0.016;2023-02-12T15:12:05;10.25;;;5.07;;
44774;SDS011;31340;51.402;0.016;2023-02-12T15:15:00;8.50;;;5.00;;
44774;SDS011;31340;51.402;0.016;2023-02-12T15:18:34;15.95;;;7.60;;
44774;SDS011;31340;51.402;0.016;2023-02-12T15:20:53;12.10;;;6.00;;
44774;SDS011;31340;51.402;0.016;2023-02-12T15:23:33;15.65;;;7.68;;
44774;SDS011;31340;51.402;0.016;2023-02-12T15:26:03;17.50;;;10.43;;
44774;SDS011;31340;51.402;0.016;2023-02-12T15:28:33;59.30;;;29.42;;
44774;SDS011;31340;51.402;0.016;2023-02-12T15:31:02;51.10;;;25.03;;
44774;SDS011;31340;51.402;0.016;2023-02-12T15:33:38;18.50;;;10.57;;
44774;SDS011;31340;51.402;0.016;2023-02-12T15:36:11;13.45;;;7.45;;
44774;SDS011;31340;51.402;0.016;2023-02-12T15:38:46;13.35;;;6.85;;
44774;SDS011;31340;51.402;0.016;2023-02-12T15:41:51;13.30;;;6.85;;
44774;SDS011;31340;51.402;0.016;2023-02-12T15:47:20;15.88;;;7.30;;
44774;SDS011;31340;51.402;0.016;2023-02-12T15:49:42;35.67;;;18.42;;
44774;SDS011;31340;51.402;0.016;2023-02-12T15:52:14;23.25;;;11.57;;
44774;SDS011;31340;51.402;0.016;2023-02-12T15:54:45;45.47;;;23.02;;
44774;SDS011;31340;51.402;0.016;2023-02-12T15:57:18;27.92;;;12.82;;
44774;SDS011;31340;51.402;0.016;2023-02-12T15:59:56;36.58;;;17.48;;
44774;SDS011;31340;51.402;0.016;2023-02-12T16:02:38;17.70;;;8.77;;
44774;SDS011;31340;51.402;0.016;2023-02-12T16:05:06;27.02;;;13.55;;
44774;SDS011;31340;51.402;0.016;2023-02-12T16:07:34;13.15;;;7.10;;
44774;SDS011;31340;51.402;0.016;2023-02-12T16:10:04;16.08;;;7.93;;
44774;SDS011;31340;51.402;0.016;2023-02-12T16:12:32;15.93;;;9.15;;
44774;SDS011;31340;51.402;0.016;2023-02-12T16:15:03;13.63;;;6.43;;
44774;SDS011;31340;51.402;0.016;2023-02-12T16:17:35;22.48;;;11.85;;
44774;SDS011;31340;51.402;0.016;2023-02-12T16:20:05;23.40;;;12.60;;
44774;SDS011;31340;51.402;0.016;2023-02-12T16:22:48;55.45;;;27.42;;
44774;SDS011;31340;51.402;0.016;2023-02-12T16:27:50;27.67;;;13.23;;
44774;SDS011;31340;51.402;0.016;2023-02-12T16:30:40;31.10;;;14.32;;
44774;SDS011;31340;51.402;0.016;2023-02-12T16:36:04;13.23;;;7.72;;
44774;SDS011;31340;51.402;0.016;2023-02-12T16:41:23;14.40;;;7.28;;
44774;SDS011;31340;51.402;0.016;2023-02-12T16:46:28;11.63;;;7.00;;
44774;SDS011;31340;51.402;0.016;2023-02-12T16:49:00;13.00;;;6.90;;
44774;SDS011;31340;51.402;0.016;2023-02-12T16:51:30;13.38;;;6.85;;
44774;SDS011;31340;51.402;0.016;2023-02-12T16:54:03;10.77;;;6.40;;
44774;SDS011;31340;51.402;0.016;2023-02-12T16:56:50;12.10;;;6.15;;
44774;SDS011;31340;51.402;0.016;2023-02-12T16:59:18;16.38;;;7.55;;
44774;SDS011;31340;51.402;0.016;2023-02-12T17:01:55;12.27;;;7.25;;
44774;SDS011;31340;51.402;0.016;2023-02-12T17:04:27;12.25;;;6.82;;
44774;SDS011;31340;51.402;0.016;2023-02-12T17:06:55;20.42;;;9.95;;
44774;SDS011;31340;51.402;0.016;2023-02-12T17:09:23;17.60;;;9.70;;
44774;SDS011;31340;51.402;0.016;2023-02-12T17:11:51;25.17;;;12.73;;
44774;SDS011;31340;51.402;0.016;2023-02-12T17:14:19;24.45;;;14.25;;
44774;SDS011;31340;51.402;0.016;2023-02-12T17:16:47;47.25;;;23.95;;
44774;SDS011;31340;51.402;0.016;2023-02-12T17:19:15;65.60;;;32.63;;
44774;SDS011;31340;51.402;0.016;2023-02-12T17:21:43;70.75;;;35.95;;
44774;SDS011;31340;51.402;0.016;2023-02-12T17:24:22;44.50;;;22.95;;
44774;SDS011;31340;51.402;0.016;2023-02-12T17:26:52;45.08;;;21.48;;
44774;SDS011;31340;51.402;0.016;2023-02-12T17:29:21;34.17;;;17.65;;
44774;SDS011;31340;51.402;0.016;2023-02-12T17:31:51;29.83;;;15.48;;
44774;SDS011;31340;51.402;0.016;2023-02-12T17:34:20;25.60;;;13.55;;
44774;SDS011;31340;51.402;0.016;2023-02-12T17:36:48;22.98;;;12.77;;
44774;SDS011;31340;51.402;0.016;2023-02-12T17:39:16;22.02;;;12.05;;
44774;SDS011;31340;51.402;0.016;2023-02-12T17:41:45;25.40;;;13.38;;
44774;SDS011;31340;51.402;0.016;2023-02-12T17:44:12;21.60;;;10.88;;
44774;SDS011;31340;51.402;0.016;2023-02-12T17:46:41;25.65;;;11.75;;
44774;SDS011;31340;51.402;0.016;2023-02-12T17:49:09;23.58;;;11.93;;
44774;SDS011;31340;51.402;0.016;2023-02-12T17:51:37;21.88;;;11.10;;
44774;SDS011;31340;51.402;0.016;2023-02-12T17:54:05;33.15;;;16.70;;